sensor_id;sensor_type;location;lat;lon;timestamp;temperature;humidity
24224;DHT22;12359;49.716;9.212;2023-08-01T00:00:46;17.60;51.90
24224;DHT22;12359;49.716;9.212;2023-08-01T00:03:12;17.60;49.70
24224;DHT22;12359;49.716;9.212;2023-08-01T00:05:39;17.70;52.50
24224;DHT22;12359;49.716;9.212;2023-08-01T00:08:13;17.70;48.70
24224;DHT22;12359;49.716;9.212;2023-08-01T00:10:42;17.70;44.50
24224;DHT22;12359;49.716;9.212;2023-08-01T00:13:08;17.80;47.20
24224;DHT22;12359;49.716;9.212;2023-08-01T00:15:35;17.80;48.00
24224;DHT22;12359;49.716;9.212;2023-08-01T00:18:00;17.70;49.60
24224;DHT22;12359;49.716;9.212;2023-08-01T00:20:26;17.80;53.10
24224;DHT22;12359;49.716;9.212;2023-08-01T00:22:52;17.70;52.30
24224;DHT22;12359;49.716;9.212;2023-08-01T00:25:18;17.70;55.30
24224;DHT22;12359;49.716;9.212;2023-08-01T00:27:44;17.70;55.60
24224;DHT22;12359;49.716;9.212;2023-08-01T00:30:10;17.70;56.90
24224;DHT22;12359;49.716;9.212;2023-08-01T00:32:36;17.70;58.90
24224;DHT22;12359;49.716;9.212;2023-08-01T00:35:03;17.70;59.60
24224;DHT22;12359;49.716;9.212;2023-08-01T00:37:28;17.70;59.00
24224;DHT22;12359;49.716;9.212;2023-08-01T00:39:54;17.70;58.80
24224;DHT22;12359;49.716;9.212;2023-08-01T00:42:20;17.70;59.30
24224;DHT22;12359;49.716;9.212;2023-08-01T00:44:45;17.70;63.80
24224;DHT22;12359;49.716;9.212;2023-08-01T00:47:13;17.70;62.50
24224;DHT22;12359;49.716;9.212;2023-08-01T00:49:39;17.70;61.00
24224;DHT22;12359;49.716;9.212;2023-08-01T00:52:06;17.70;61.70
24224;DHT22;12359;49.716;9.212;2023-08-01T00:54:32;17.70;61.50
24224;DHT22;12359;49.716;9.212;2023-08-01T00:57:02;17.70;61.20
24224;DHT22;12359;49.716;9.212;2023-08-01T00:59:29;17.70;62.00
24224;DHT22;12359;49.716;9.212;2023-08-01T01:01:54;17.70;63.10
24224;DHT22;12359;49.716;9.212;2023-08-01T01:04:20;17.70;60.70
24224;DHT22;12359;49.716;9.212;2023-08-01T01:06:58;17.80;62.90
24224;DHT22;12359;49.716;9.212;2023-08-01T01:09:28;17.70;64.90
24224;DHT22;12359;49.716;9.212;2023-08-01T01:11:55;17.70;70.90
24224;DHT22;12359;49.716;9.212;2023-08-01T01:14:20;17.70;72.30
24224;DHT22;12359;49.716;9.212;2023-08-01T01:16:46;17.60;73.10
24224;DHT22;12359;49.716;9.212;2023-08-01T01:19:11;17.70;72.50
24224;DHT22;12359;49.716;9.212;2023-08-01T01:21:39;17.70;71.80
24224;DHT22;12359;49.716;9.212;2023-08-01T01:24:07;17.70;70.50
24224;DHT22;12359;49.716;9.212;2023-08-01T01:26:36;17.70;72.60
24224;DHT22;12359;49.716;9.212;2023-08-01T01:29:03;17.80;68.50
24224;DHT22;12359;49.716;9.212;2023-08-01T01:31:31;17.80;67.90
24224;DHT22;12359;49.716;9.212;2023-08-01T01:33:57;17.80;67.40
24224;DHT22;12359;49.716;9.212;2023-08-01T01:36:23;17.90;66.50
24224;DHT22;12359;49.716;9.212;2023-08-01T01:38:48;17.90;65.40
24224;DHT22;12359;49.716;9.212;2023-08-01T01:41:14;17.90;59.80
24224;DHT22;12359;49.716;9.212;2023-08-01T01:43:40;18.00;55.00
24224;DHT22;12359;49.716;9.212;2023-08-01T01:46:06;18.00;56.30
24224;DHT22;12359;49.716;9.212;2023-08-01T01:48:32;18.00;57.10
24224;DHT22;12359;49.716;9.212;2023-08-01T01:50:58;18.10;59.10
24224;DHT22;12359;49.716;9.212;2023-08-01T01:53:23;18.10;62.30
24224;DHT22;12359;49.716;9.212;2023-08-01T01:55:49;18.10;64.00
24224;DHT22;12359;49.716;9.212;2023-08-01T01:58:15;18.10;65.20
24224;DHT22;12359;49.716;9.212;2023-08-01T02:00:40;18.10;63.30
24224;DHT22;12359;49.716;9.212;2023-08-01T02:03:06;18.10;61.80
24224;DHT22;12359;49.716;9.212;2023-08-01T02:05:35;18.10;64.80
24224;DHT22;12359;49.716;9.212;2023-08-01T02:08:01;18.00;65.20
24224;DHT22;12359;49.716;9.212;2023-08-01T02:10:27;18.00;65.70
24224;DHT22;12359;49.716;9.212;2023-08-01T02:12:52;18.00;66.80
24224;DHT22;12359;49.716;9.212;2023-08-01T02:15:18;17.90;66.20
24224;DHT22;12359;49.716;9.212;2023-08-01T02:17:44;17.90;68.70
24224;DHT22;12359;49.716;9.212;2023-08-01T02:20:10;17.90;66.60
24224;DHT22;12359;49.716;9.212;2023-08-01T02:22:35;17.90;59.50
24224;DHT22;12359;49.716;9.212;2023-08-01T02:25:01;17.90;61.10
24224;DHT22;12359;49.716;9.212;2023-08-01T02:27:27;17.90;63.20
24224;DHT22;12359;49.716;9.212;2023-08-01T02:29:52;17.90;60.80
24224;DHT22;12359;49.716;9.212;2023-08-01T02:32:18;17.80;61.80
24224;DHT22;12359;49.716;9.212;2023-08-01T02:34:44;17.90;62.30
24224;DHT22;12359;49.716;9.212;2023-08-01T02:37:09;17.90;62.20
24224;DHT22;12359;49.716;9.212;2023-08-01T02:39:35;17.90;63.30
24224;DHT22;12359;49.716;9.212;2023-08-01T02:42:01;17.90;65.20
24224;DHT22;12359;49.716;9.212;2023-08-01T02:44:28;17.90;64.60
24224;DHT22;12359;49.716;9.212;2023-08-01T02:46:54;17.80;67.10
24224;DHT22;12359;49.716;9.212;2023-08-01T02:49:19;17.80;68.70
24224;DHT22;12359;49.716;9.212;2023-08-01T02:51:45;17.80;69.90
24224;DHT22;12359;49.716;9.212;2023-08-01T02:54:10;17.90;64.80
24224;DHT22;12359;49.716;9.212;2023-08-01T02:56:36;17.90;59.20
24224;DHT22;12359;49.716;9.212;2023-08-01T02:59:07;17.90;60.60
24224;DHT22;12359;49.716;9.212;2023-08-01T03:01:34;17.90;59.10
24224;DHT22;12359;49.716;9.212;2023-08-01T03:04:02;18.00;57.10
24224;DHT22;12359;49.716;9.212;2023-08-01T03:06:28;18.00;61.70
24224;DHT22;12359;49.716;9.212;2023-08-01T03:08:53;18.00;62.50
24224;DHT22;12359;49.716;9.212;2023-08-01T03:11:19;18.00;59.60
24224;DHT22;12359;49.716;9.212;2023-08-01T03:13:45;18.10;56.40
24224;DHT22;12359;49.716;9.212;2023-08-01T03:16:10;18.10;51.20
24224;DHT22;12359;49.716;9.212;2023-08-01T03:18:36;18.10;44.10
24224;DHT22;12359;49.716;9.212;2023-08-01T03:21:02;18.20;48.60
24224;DHT22;12359;49.716;9.212;2023-08-01T03:23:29;18.20;44.50
24224;DHT22;12359;49.716;9.212;2023-08-01T03:25:55;18.20;46.20
24224;DHT22;12359;49.716;9.212;2023-08-01T03:28:21;18.20;48.20
24224;DHT22;12359;49.716;9.212;2023-08-01T03:30:46;18.20;50.10
24224;DHT22;12359;49.716;9.212;2023-08-01T03:33:15;18.20;51.60
24224;DHT22;12359;49.716;9.212;2023-08-01T03:35:41;18.20;54.10
24224;DHT22;12359;49.716;9.212;2023-08-01T03:38:07;18.10;52.80
24224;DHT22;12359;49.716;9.212;2023-08-01T03:40:33;18.10;53.70
24224;DHT22;12359;49.716;9.212;2023-08-01T03:42:58;18.10;54.20
24224;DHT22;12359;49.716;9.212;2023-08-01T03:45:24;18.10;56.30
24224;DHT22;12359;49.716;9.212;2023-08-01T03:47:50;18.10;54.00
24224;DHT22;12359;49.716;9.212;2023-08-01T03:50:16;18.10;59.10
24224;DHT22;12359;49.716;9.212;2023-08-01T03:52:41;18.10;55.80
24224;DHT22;12359;49.716;9.212;2023-08-01T03:55:07;18.10;50.90
24224;DHT22;12359;49.716;9.212;2023-08-01T03:57:33;18.10;53.60
24224;DHT22;12359;49.716;9.212;2023-08-01T04:00:00;18.10;54.20
24224;DHT22;12359;49.716;9.212;2023-08-01T04:02:25;18.10;45.30
24224;DHT22;12359;49.716;9.212;2023-08-01T04:04:51;18.20;54.00
24224;DHT22;12359;49.716;9.212;2023-08-01T04:07:17;18.20;47.30
24224;DHT22;12359;49.716;9.212;2023-08-01T04:09:44;18.20;54.80
24224;DHT22;12359;49.716;9.212;2023-08-01T04:12:09;18.20;57.30
24224;DHT22;12359;49.716;9.212;2023-08-01T04:14:35;18.20;52.80
24224;DHT22;12359;49.716;9.212;2023-08-01T04:17:01;18.10;56.50
24224;DHT22;12359;49.716;9.212;2023-08-01T04:19:26;18.20;59.60
24224;DHT22;12359;49.716;9.212;2023-08-01T04:21:52;18.10;56.40
24224;DHT22;12359;49.716;9.212;2023-08-01T04:24:17;18.10;55.10
24224;DHT22;12359;49.716;9.212;2023-08-01T04:26:43;18.20;54.10
24224;DHT22;12359;49.716;9.212;2023-08-01T04:29:09;18.10;51.50
24224;DHT22;12359;49.716;9.212;2023-08-01T04:31:35;18.10;51.10
24224;DHT22;12359;49.716;9.212;2023-08-01T04:34:00;18.10;51.70
24224;DHT22;12359;49.716;9.212;2023-08-01T04:36:26;18.10;49.70
24224;DHT22;12359;49.716;9.212;2023-08-01T04:38:51;18.10;48.70
24224;DHT22;12359;49.716;9.212;2023-08-01T04:41:17;18.10;57.20
24224;DHT22;12359;49.716;9.212;2023-08-01T04:43:43;18.10;59.20
24224;DHT22;12359;49.716;9.212;2023-08-01T04:46:08;18.10;61.50
24224;DHT22;12359;49.716;9.212;2023-08-01T04:48:34;18.00;61.40
24224;DHT22;12359;49.716;9.212;2023-08-01T04:51:00;18.00;56.00
24224;DHT22;12359;49.716;9.212;2023-08-01T04:53:25;18.00;59.00
24224;DHT22;12359;49.716;9.212;2023-08-01T04:55:51;17.90;57.50
24224;DHT22;12359;49.716;9.212;2023-08-01T04:58:17;17.90;56.90
24224;DHT22;12359;49.716;9.212;2023-08-01T05:00:42;17.90;55.80
24224;DHT22;12359;49.716;9.212;2023-08-01T05:03:08;17.90;58.80
24224;DHT22;12359;49.716;9.212;2023-08-01T05:05:34;17.90;57.10
24224;DHT22;12359;49.716;9.212;2023-08-01T05:07:59;17.90;57.10
24224;DHT22;12359;49.716;9.212;2023-08-01T05:10:25;17.90;60.20
24224;DHT22;12359;49.716;9.212;2023-08-01T05:12:51;17.90;62.80
24224;DHT22;12359;49.716;9.212;2023-08-01T05:15:16;17.90;59.70
24224;DHT22;12359;49.716;9.212;2023-08-01T05:17:42;17.90;58.50
24224;DHT22;12359;49.716;9.212;2023-08-01T05:20:08;17.90;58.50
24224;DHT22;12359;49.716;9.212;2023-08-01T05:22:34;17.90;58.30
24224;DHT22;12359;49.716;9.212;2023-08-01T05:25:00;17.90;53.20
24224;DHT22;12359;49.716;9.212;2023-08-01T05:27:27;17.90;52.90
24224;DHT22;12359;49.716;9.212;2023-08-01T05:29:53;18.00;62.30
24224;DHT22;12359;49.716;9.212;2023-08-01T05:32:18;18.00;59.40
24224;DHT22;12359;49.716;9.212;2023-08-01T05:34:44;18.00;60.60
24224;DHT22;12359;49.716;9.212;2023-08-01T05:37:10;18.00;65.30
24224;DHT22;12359;49.716;9.212;2023-08-01T05:39:35;18.00;67.90
24224;DHT22;12359;49.716;9.212;2023-08-01T05:42:01;18.10;69.70
24224;DHT22;12359;49.716;9.212;2023-08-01T05:44:27;18.00;57.80
24224;DHT22;12359;49.716;9.212;2023-08-01T05:46:52;17.90;59.20
24224;DHT22;12359;49.716;9.212;2023-08-01T05:49:18;17.80;47.20
24224;DHT22;12359;49.716;9.212;2023-08-01T05:51:44;17.80;53.80
24224;DHT22;12359;49.716;9.212;2023-08-01T05:54:09;17.70;62.70
24224;DHT22;12359;49.716;9.212;2023-08-01T05:56:35;17.60;62.40
24224;DHT22;12359;49.716;9.212;2023-08-01T05:59:01;17.60;49.20
24224;DHT22;12359;49.716;9.212;2023-08-01T06:01:26;17.50;47.70
24224;DHT22;12359;49.716;9.212;2023-08-01T06:03:52;17.50;45.20
24224;DHT22;12359;49.716;9.212;2023-08-01T06:06:18;17.50;38.40
24224;DHT22;12359;49.716;9.212;2023-08-01T06:08:44;17.60;53.70
24224;DHT22;12359;49.716;9.212;2023-08-01T06:11:09;17.50;54.20
24224;DHT22;12359;49.716;9.212;2023-08-01T06:13:35;17.50;54.20
24224;DHT22;12359;49.716;9.212;2023-08-01T06:16:01;17.50;58.00
24224;DHT22;12359;49.716;9.212;2023-08-01T06:18:26;17.50;50.60
24224;DHT22;12359;49.716;9.212;2023-08-01T06:20:52;17.50;46.20
24224;DHT22;12359;49.716;9.212;2023-08-01T06:23:18;17.50;50.80
24224;DHT22;12359;49.716;9.212;2023-08-01T06:25:44;17.50;52.40
24224;DHT22;12359;49.716;9.212;2023-08-01T06:28:09;17.60;46.00
24224;DHT22;12359;49.716;9.212;2023-08-01T06:30:35;17.60;51.20
24224;DHT22;12359;49.716;9.212;2023-08-01T06:33:01;17.50;51.30
24224;DHT22;12359;49.716;9.212;2023-08-01T06:35:26;17.50;49.70
24224;DHT22;12359;49.716;9.212;2023-08-01T06:37:52;17.40;53.40
24224;DHT22;12359;49.716;9.212;2023-08-01T06:40:18;17.40;56.40
24224;DHT22;12359;49.716;9.212;2023-08-01T06:42:43;17.40;61.10
24224;DHT22;12359;49.716;9.212;2023-08-01T06:45:09;17.30;62.60
24224;DHT22;12359;49.716;9.212;2023-08-01T06:47:35;17.40;61.40
24224;DHT22;12359;49.716;9.212;2023-08-01T06:50:00;17.30;60.20
24224;DHT22;12359;49.716;9.212;2023-08-01T06:52:26;17.40;61.70
24224;DHT22;12359;49.716;9.212;2023-08-01T06:54:52;17.40;59.30
24224;DHT22;12359;49.716;9.212;2023-08-01T06:57:17;17.50;58.90
24224;DHT22;12359;49.716;9.212;2023-08-01T06:59:43;17.60;59.20
24224;DHT22;12359;49.716;9.212;2023-08-01T07:02:09;17.60;59.80
24224;DHT22;12359;49.716;9.212;2023-08-01T07:04:34;17.70;57.30
24224;DHT22;12359;49.716;9.212;2023-08-01T07:07:00;17.70;56.60
24224;DHT22;12359;49.716;9.212;2023-08-01T07:09:26;17.80;58.20
24224;DHT22;12359;49.716;9.212;2023-08-01T07:11:51;17.80;58.70
24224;DHT22;12359;49.716;9.212;2023-08-01T07:14:17;17.90;59.30
24224;DHT22;12359;49.716;9.212;2023-08-01T07:16:43;17.90;56.10
24224;DHT22;12359;49.716;9.212;2023-08-01T07:19:08;18.00;53.70
24224;DHT22;12359;49.716;9.212;2023-08-01T07:21:34;18.10;49.70
24224;DHT22;12359;49.716;9.212;2023-08-01T07:24:00;18.20;51.70
24224;DHT22;12359;49.716;9.212;2023-08-01T07:26:25;18.20;28.60
24224;DHT22;12359;49.716;9.212;2023-08-01T07:28:54;18.20;28.40
24224;DHT22;12359;49.716;9.212;2023-08-01T07:31:19;18.20;30.00
24224;DHT22;12359;49.716;9.212;2023-08-01T07:33:45;18.20;29.80
24224;DHT22;12359;49.716;9.212;2023-08-01T07:36:11;18.30;30.10
24224;DHT22;12359;49.716;9.212;2023-08-01T07:38:36;18.50;25.60
24224;DHT22;12359;49.716;9.212;2023-08-01T07:41:03;18.50;22.40
24224;DHT22;12359;49.716;9.212;2023-08-01T07:43:29;18.70;19.50
24224;DHT22;12359;49.716;9.212;2023-08-01T07:45:59;18.90;25.80
24224;DHT22;12359;49.716;9.212;2023-08-01T07:48:25;19.00;20.60
24224;DHT22;12359;49.716;9.212;2023-08-01T07:50:51;19.10;11.20
24224;DHT22;12359;49.716;9.212;2023-08-01T07:53:16;19.30;10.70
24224;DHT22;12359;49.716;9.212;2023-08-01T07:55:42;19.30;20.70
24224;DHT22;12359;49.716;9.212;2023-08-01T07:58:08;19.60;13.20
24224;DHT22;12359;49.716;9.212;2023-08-01T08:00:36;19.70;11.70
24224;DHT22;12359;49.716;9.212;2023-08-01T08:03:02;19.80;1.00
24224;DHT22;12359;49.716;9.212;2023-08-01T08:05:27;19.80;1.00
24224;DHT22;12359;49.716;9.212;2023-08-01T08:07:53;19.90;1.00
24224;DHT22;12359;49.716;9.212;2023-08-01T08:10:19;20.00;1.00
24224;DHT22;12359;49.716;9.212;2023-08-01T08:12:45;20.00;1.00
24224;DHT22;12359;49.716;9.212;2023-08-01T08:15:10;19.90;1.00
24224;DHT22;12359;49.716;9.212;2023-08-01T08:17:36;20.00;1.00
24224;DHT22;12359;49.716;9.212;2023-08-01T08:20:03;20.00;1.00
24224;DHT22;12359;49.716;9.212;2023-08-01T08:22:29;20.10;1.00
24224;DHT22;12359;49.716;9.212;2023-08-01T08:24:54;20.00;1.00
24224;DHT22;12359;49.716;9.212;2023-08-01T08:27:20;19.90;1.00
24224;DHT22;12359;49.716;9.212;2023-08-01T08:29:46;19.80;1.00
24224;DHT22;12359;49.716;9.212;2023-08-01T08:32:11;19.70;1.00
24224;DHT22;12359;49.716;9.212;2023-08-01T08:34:37;19.70;1.00
24224;DHT22;12359;49.716;9.212;2023-08-01T08:37:05;19.80;1.00
24224;DHT22;12359;49.716;9.212;2023-08-01T08:39:30;19.80;1.00
24224;DHT22;12359;49.716;9.212;2023-08-01T08:41:57;19.70;1.00
24224;DHT22;12359;49.716;9.212;2023-08-01T08:44:22;19.60;1.00
24224;DHT22;12359;49.716;9.212;2023-08-01T08:46:55;19.50;10.90
24224;DHT22;12359;49.716;9.212;2023-08-01T08:49:25;19.50;15.70
24224;DHT22;12359;49.716;9.212;2023-08-01T08:51:52;19.50;11.80
24224;DHT22;12359;49.716;9.212;2023-08-01T08:54:19;19.50;14.20
24224;DHT22;12359;49.716;9.212;2023-08-01T08:56:46;19.50;20.30
24224;DHT22;12359;49.716;9.212;2023-08-01T08:59:12;19.50;26.30
24224;DHT22;12359;49.716;9.212;2023-08-01T09:01:39;19.50;27.80
24224;DHT22;12359;49.716;9.212;2023-08-01T09:04:05;19.50;27.60
24224;DHT22;12359;49.716;9.212;2023-08-01T09:06:45;19.50;20.80
24224;DHT22;12359;49.716;9.212;2023-08-01T09:09:12;19.40;24.80
24224;DHT22;12359;49.716;9.212;2023-08-01T09:11:49;19.40;23.70
24224;DHT22;12359;49.716;9.212;2023-08-01T09:14:15;19.40;15.70
24224;DHT22;12359;49.716;9.212;2023-08-01T09:16:41;19.40;19.10
24224;DHT22;12359;49.716;9.212;2023-08-01T09:19:08;19.40;11.80
24224;DHT22;12359;49.716;9.212;2023-08-01T09:21:38;19.40;22.30
24224;DHT22;12359;49.716;9.212;2023-08-01T09:26:36;19.30;1.00
24224;DHT22;12359;49.716;9.212;2023-08-01T09:29:01;19.40;1.00
24224;DHT22;12359;49.716;9.212;2023-08-01T09:31:29;19.70;3.80
24224;DHT22;12359;49.716;9.212;2023-08-01T09:33:55;19.80;1.00
24224;DHT22;12359;49.716;9.212;2023-08-01T09:36:22;20.00;1.00
24224;DHT22;12359;49.716;9.212;2023-08-01T09:38:48;20.10;1.00
24224;DHT22;12359;49.716;9.212;2023-08-01T09:41:20;20.10;99.90
24224;DHT22;12359;49.716;9.212;2023-08-01T09:43:46;20.20;99.90
24224;DHT22;12359;49.716;9.212;2023-08-01T09:46:13;20.50;99.90
24224;DHT22;12359;49.716;9.212;2023-08-01T09:48:39;20.70;99.90
24224;DHT22;12359;49.716;9.212;2023-08-01T09:51:08;21.20;99.90
24224;DHT22;12359;49.716;9.212;2023-08-01T09:53:35;21.70;1.30
24224;DHT22;12359;49.716;9.212;2023-08-01T09:56:02;22.00;99.90
24224;DHT22;12359;49.716;9.212;2023-08-01T09:58:37;22.00;1.00
24224;DHT22;12359;49.716;9.212;2023-08-01T10:01:03;22.20;99.90
24224;DHT22;12359;49.716;9.212;2023-08-01T10:03:29;22.40;99.90
24224;DHT22;12359;49.716;9.212;2023-08-01T10:05:56;22.70;1.00
24224;DHT22;12359;49.716;9.212;2023-08-01T10:08:22;23.00;3.00
24224;DHT22;12359;49.716;9.212;2023-08-01T10:10:48;23.60;99.90
24224;DHT22;12359;49.716;9.212;2023-08-01T10:13:14;24.20;99.90
24224;DHT22;12359;49.716;9.212;2023-08-01T10:15:41;24.60;1.00
24224;DHT22;12359;49.716;9.212;2023-08-01T10:18:08;24.40;1.00
24224;DHT22;12359;49.716;9.212;2023-08-01T10:20:36;24.50;99.90
24224;DHT22;12359;49.716;9.212;2023-08-01T10:23:03;24.50;1.00
24224;DHT22;12359;49.716;9.212;2023-08-01T10:25:30;24.50;1.00
24224;DHT22;12359;49.716;9.212;2023-08-01T10:28:00;24.50;1.00
24224;DHT22;12359;49.716;9.212;2023-08-01T10:30:27;24.30;1.00
24224;DHT22;12359;49.716;9.212;2023-08-01T10:32:58;24.30;99.90
24224;DHT22;12359;49.716;9.212;2023-08-01T10:35:38;24.90;1.00
24224;DHT22;12359;49.716;9.212;2023-08-01T10:38:09;25.40;99.90
24224;DHT22;12359;49.716;9.212;2023-08-01T10:40:42;26.00;99.90
24224;DHT22;12359;49.716;9.212;2023-08-01T10:43:24;26.60;1.00
24224;DHT22;12359;49.716;9.212;2023-08-01T10:46:03;26.60;99.90
24224;DHT22;12359;49.716;9.212;2023-08-01T10:48:29;26.70;99.90
24224;DHT22;12359;49.716;9.212;2023-08-01T10:50:56;27.00;99.90
24224;DHT22;12359;49.716;9.212;2023-08-01T10:53:24;26.90;1.00
24224;DHT22;12359;49.716;9.212;2023-08-01T10:55:50;27.00;1.00
24224;DHT22;12359;49.716;9.212;2023-08-01T10:58:15;27.10;1.00
24224;DHT22;12359;49.716;9.212;2023-08-01T11:00:42;26.80;99.90
24224;DHT22;12359;49.716;9.212;2023-08-01T11:03:08;26.50;99.90
24224;DHT22;12359;49.716;9.212;2023-08-01T11:05:33;26.40;99.90
24224;DHT22;12359;49.716;9.212;2023-08-01T11:08:03;26.60;99.90
24224;DHT22;12359;49.716;9.212;2023-08-01T11:10:30;26.80;99.90
24224;DHT22;12359;49.716;9.212;2023-08-01T11:12:57;27.10;99.90
24224;DHT22;12359;49.716;9.212;2023-08-01T11:15:23;27.40;99.90
24224;DHT22;12359;49.716;9.212;2023-08-01T11:17:52;27.50;99.90
24224;DHT22;12359;49.716;9.212;2023-08-01T11:20:20;27.70;99.90
24224;DHT22;12359;49.716;9.212;2023-08-01T11:22:59;27.50;99.90
24224;DHT22;12359;49.716;9.212;2023-08-01T11:25:37;27.60;99.90
24224;DHT22;12359;49.716;9.212;2023-08-01T11:28:15;27.20;99.90
24224;DHT22;12359;49.716;9.212;2023-08-01T11:30:41;26.70;99.90
24224;DHT22;12359;49.716;9.212;2023-08-01T11:33:24;26.40;99.90
24224;DHT22;12359;49.716;9.212;2023-08-01T11:35:54;26.70;99.90
24224;DHT22;12359;49.716;9.212;2023-08-01T11:38:23;26.80;99.90
24224;DHT22;12359;49.716;9.212;2023-08-01T11:40:51;27.10;99.90
24224;DHT22;12359;49.716;9.212;2023-08-01T11:43:17;27.40;99.90
24224;DHT22;12359;49.716;9.212;2023-08-01T11:48:16;27.70;57.20
24224;DHT22;12359;49.716;9.212;2023-08-01T11:50:43;28.10;37.30
24224;DHT22;12359;49.716;9.212;2023-08-01T11:53:20;28.00;1.00
24224;DHT22;12359;49.716;9.212;2023-08-01T11:55:47;28.40;1.00
24224;DHT22;12359;49.716;9.212;2023-08-01T11:58:13;28.70;1.00
24224;DHT22;12359;49.716;9.212;2023-08-01T12:00:40;28.60;1.00
24224;DHT22;12359;49.716;9.212;2023-08-01T12:03:09;28.50;1.00
24224;DHT22;12359;49.716;9.212;2023-08-01T12:05:41;28.20;1.00
24224;DHT22;12359;49.716;9.212;2023-08-01T12:08:14;28.10;1.00
24224;DHT22;12359;49.716;9.212;2023-08-01T12:10:45;27.80;1.00
24224;DHT22;12359;49.716;9.212;2023-08-01T12:13:24;27.70;1.00
24224;DHT22;12359;49.716;9.212;2023-08-01T12:15:51;27.70;1.00
24224;DHT22;12359;49.716;9.212;2023-08-01T12:18:24;27.40;1.00
24224;DHT22;12359;49.716;9.212;2023-08-01T12:20:51;27.10;1.00
24224;DHT22;12359;49.716;9.212;2023-08-01T12:23:17;26.80;1.00
24224;DHT22;12359;49.716;9.212;2023-08-01T12:25:43;26.40;1.00
24224;DHT22;12359;49.716;9.212;2023-08-01T12:28:09;26.00;1.00
24224;DHT22;12359;49.716;9.212;2023-08-01T12:30:35;25.80;1.00
24224;DHT22;12359;49.716;9.212;2023-08-01T12:33:00;25.60;1.00
24224;DHT22;12359;49.716;9.212;2023-08-01T12:35:26;25.40;1.00
24224;DHT22;12359;49.716;9.212;2023-08-01T12:37:53;25.30;1.00
24224;DHT22;12359;49.716;9.212;2023-08-01T12:40:19;25.10;1.00
24224;DHT22;12359;49.716;9.212;2023-08-01T12:42:46;25.10;1.00
24224;DHT22;12359;49.716;9.212;2023-08-01T12:45:11;25.10;1.00
24224;DHT22;12359;49.716;9.212;2023-08-01T12:47:37;25.10;1.00
24224;DHT22;12359;49.716;9.212;2023-08-01T12:50:03;25.30;1.00
24224;DHT22;12359;49.716;9.212;2023-08-01T12:52:29;25.40;1.00
24224;DHT22;12359;49.716;9.212;2023-08-01T12:54:54;25.70;1.00
24224;DHT22;12359;49.716;9.212;2023-08-01T12:57:20;26.00;1.00
24224;DHT22;12359;49.716;9.212;2023-08-01T12:59:46;26.30;1.00
24224;DHT22;12359;49.716;9.212;2023-08-01T13:02:13;26.40;1.00
24224;DHT22;12359;49.716;9.212;2023-08-01T13:04:39;26.70;1.00
24224;DHT22;12359;49.716;9.212;2023-08-01T13:07:05;26.90;1.00
24224;DHT22;12359;49.716;9.212;2023-08-01T13:09:31;26.90;1.00
24224;DHT22;12359;49.716;9.212;2023-08-01T13:11:56;26.90;1.00
24224;DHT22;12359;49.716;9.212;2023-08-01T13:14:24;26.90;1.00
24224;DHT22;12359;49.716;9.212;2023-08-01T13:16:50;26.50;1.00
24224;DHT22;12359;49.716;9.212;2023-08-01T13:19:15;26.10;1.00
24224;DHT22;12359;49.716;9.212;2023-08-01T13:21:41;25.60;1.00
24224;DHT22;12359;49.716;9.212;2023-08-01T13:24:07;25.30;1.00
24224;DHT22;12359;49.716;9.212;2023-08-01T13:26:33;24.90;1.00
24224;DHT22;12359;49.716;9.212;2023-08-01T13:28:59;24.70;1.00
24224;DHT22;12359;49.716;9.212;2023-08-01T13:31:26;24.30;1.00
24224;DHT22;12359;49.716;9.212;2023-08-01T13:33:53;24.30;1.00
24224;DHT22;12359;49.716;9.212;2023-08-01T13:36:19;24.70;1.00
24224;DHT22;12359;49.716;9.212;2023-08-01T13:38:44;25.10;1.00
24224;DHT22;12359;49.716;9.212;2023-08-01T13:41:10;25.10;1.00
24224;DHT22;12359;49.716;9.212;2023-08-01T13:43:36;25.30;1.00
24224;DHT22;12359;49.716;9.212;2023-08-01T13:46:12;25.40;1.00
24224;DHT22;12359;49.716;9.212;2023-08-01T13:48:38;25.70;1.00
24224;DHT22;12359;49.716;9.212;2023-08-01T13:51:04;26.00;1.00
24224;DHT22;12359;49.716;9.212;2023-08-01T13:53:30;26.10;1.00
24224;DHT22;12359;49.716;9.212;2023-08-01T13:55:55;26.20;1.00
24224;DHT22;12359;49.716;9.212;2023-08-01T13:58:21;26.00;1.00
24224;DHT22;12359;49.716;9.212;2023-08-01T14:00:47;26.00;1.00
24224;DHT22;12359;49.716;9.212;2023-08-01T14:03:12;26.10;1.00
24224;DHT22;12359;49.716;9.212;2023-08-01T14:05:38;26.00;1.00
24224;DHT22;12359;49.716;9.212;2023-08-01T14:08:04;26.10;1.00
24224;DHT22;12359;49.716;9.212;2023-08-01T14:10:30;26.10;1.00
24224;DHT22;12359;49.716;9.212;2023-08-01T14:12:56;25.70;1.00
24224;DHT22;12359;49.716;9.212;2023-08-01T14:15:21;25.40;1.00
24224;DHT22;12359;49.716;9.212;2023-08-01T14:17:47;25.20;1.00
24224;DHT22;12359;49.716;9.212;2023-08-01T14:20:13;24.70;1.00
24224;DHT22;12359;49.716;9.212;2023-08-01T14:22:40;24.30;1.00
24224;DHT22;12359;49.716;9.212;2023-08-01T14:25:06;24.10;1.00
24224;DHT22;12359;49.716;9.212;2023-08-01T14:27:32;24.00;1.00
24224;DHT22;12359;49.716;9.212;2023-08-01T14:29:58;24.00;1.00
24224;DHT22;12359;49.716;9.212;2023-08-01T14:32:24;24.30;1.00
24224;DHT22;12359;49.716;9.212;2023-08-01T14:34:50;24.50;1.00
24224;DHT22;12359;49.716;9.212;2023-08-01T14:37:16;24.60;1.00
24224;DHT22;12359;49.716;9.212;2023-08-01T14:39:42;24.70;1.00
24224;DHT22;12359;49.716;9.212;2023-08-01T14:42:08;24.80;1.00
24224;DHT22;12359;49.716;9.212;2023-08-01T14:44:33;24.80;1.00
24224;DHT22;12359;49.716;9.212;2023-08-01T14:46:59;24.70;1.00
24224;DHT22;12359;49.716;9.212;2023-08-01T14:49:25;24.80;1.00
24224;DHT22;12359;49.716;9.212;2023-08-01T14:51:53;24.70;1.00
24224;DHT22;12359;49.716;9.212;2023-08-01T14:54:18;24.70;1.00
24224;DHT22;12359;49.716;9.212;2023-08-01T14:56:44;24.70;1.00
24224;DHT22;12359;49.716;9.212;2023-08-01T14:59:10;24.50;1.00
24224;DHT22;12359;49.716;9.212;2023-08-01T15:01:36;24.30;1.00
24224;DHT22;12359;49.716;9.212;2023-08-01T15:04:01;24.20;1.00
24224;DHT22;12359;49.716;9.212;2023-08-01T15:06:27;24.10;1.00
24224;DHT22;12359;49.716;9.212;2023-08-01T15:08:53;24.00;1.00
24224;DHT22;12359;49.716;9.212;2023-08-01T15:11:18;24.00;1.00
24224;DHT22;12359;49.716;9.212;2023-08-01T15:13:44;23.90;1.00
24224;DHT22;12359;49.716;9.212;2023-08-01T15:16:10;23.90;1.00
24224;DHT22;12359;49.716;9.212;2023-08-01T15:18:40;23.80;1.00
24224;DHT22;12359;49.716;9.212;2023-08-01T15:21:06;23.80;1.00
24224;DHT22;12359;49.716;9.212;2023-08-01T15:23:32;23.50;1.00
24224;DHT22;12359;49.716;9.212;2023-08-01T15:25:58;23.40;1.00
24224;DHT22;12359;49.716;9.212;2023-08-01T15:28:25;23.30;1.00
24224;DHT22;12359;49.716;9.212;2023-08-01T15:33:33;22.60;99.90
24224;DHT22;12359;49.716;9.212;2023-08-01T15:36:01;21.80;99.90
24224;DHT22;12359;49.716;9.212;2023-08-01T15:38:27;21.30;99.90